Kortrijk, Belgium
Current Conditions -  °F | °C
As of 5:30 PM on Friday 21 Nov 2014 (Local Time) from LFQQ Reporting Station
Broken Clouds Broken Clouds  
Wind Chill: 42°   Ceiling: 1300
Heat Index: 45°   Visibility: 4mi
Dew Point: 43°   Wind: 5mph
Humidity: 93%   Direction: 100°E
Pressure: 30.03"   Gusts: NA
Location:  50.83°N, 3.26°E
Report Text: LFQQ 211630Z 10004KT 6000 BKN013 07/06 Q1017 NOSIG
Loading
Personal Weather Stations






























Interactive Weather Map New forecast layout! Learn more

10-Day Weather Forecast

Advertisements
Track Severe Weather on mobile